Zhoushuizi Airport
ZYTL : now visible

Airfield :











YOU CAN JOIN US ON...

 
LOGIN :

Register | Disclaimer

   EN    FR    IT 

 









Legend :    VFR   Marginal VFR   IFR   Intensive IFR   Very Intensive IFR
Visi :
Ceiling :
>= 8 km
>= 3000ft
5 to 8 km
1000 to 3000 ft
1500m to 5 km
500 to 1000 ft
800 to 1500m
200 to 500 ft
< 800m
< 200 ft
Symbols :   Thunderstorms  Fog  Heavy snow  Heavy precipitations  Wind > 20 kt







- Airport Elevation : 107 ft
- IATA code : DLC


ZYTL - Zhoushuizi

CURRENT METAR :
  • 210100Z VRB01MPS CAVOK 04/M07 Q1030 NOSIG

EXPIRED METARs :
  • 210030Z VRB01MPS 6000 NSC 02/M04 Q1030 NOSIG
  • 210000Z 26001MPS 6000 NSC M01/M05 Q1030 NOSIG
  • 202330Z 00000MPS 8000 NSC M03/M06 Q1030 NOSIG
  • 202300Z 26002MPS 7000 NSC M03/M07 Q1030 NOSIG
  • 202230Z 28001MPS 7000 NSC M04/M07 Q1029 NOSIG

TAF TAF ZYTL
Valid from the 21 at 00:00 until the 22 at 00:00 UTC


201901Z 2100/2124 26004MPS 5000 BR NSC TX06/2106Z TNM03/21Z
ZYSH FIR / Asia



MET'MAP, your aeronautical weather chart ! - Copyright ORBIFLY December 2007 - Disclaimer

ORBIFLY MET'MAP TEAM :

Programming & Development : Alexandra Zaïnal
Concept & Development : Baudouin d'Aumeries
Co-Development & Prog : Marc-Olivier Méhu
Technical & hardware support : Manuel Goepfert

Contact : metmap@orbifly.com




SOURCES & CREDITS :

   NOAA       Earth
Advisory